Flight Track Log - Related Links

Times and Time Zones

All times are in EDT time to prevent confusion due to time zone crossing. See the EJA122 flight status page for this flight to view local times or setup timezone preferences in your user account.

Time Position Orientation Groundspeed Altitude Reporting Facility
EDT Latitude Longitude Course Direction KTS MPH feet Rate Location/Type
Tue 08:22:20 AM 38.7333 -90.3000 99° East 194 223 2,100  Level Gateway (St. Louis) TRACON
Tue 08:23:13 AM 38.7261 -90.2394 99° East 200 230 4,100 2,452 Climbing Kansas City Center
Tue 08:24:15 AM 38.7700 -90.1922 40° Northeast 225 259 6,800 2,419 Climbing Kansas City Center
Tue 08:25:17 AM 38.8333 -90.2056 351° North 232 267 9,100 1,951 Climbing Kansas City Center
Tue 08:26:18 AM 38.9075 -90.2219 350° North 262 302 10,800 1,561 Climbing Kansas City Center
Tue 08:27:20 AM 38.9928 -90.2411 350° North 303 349 12,300 1,463 Climbing Kansas City Center
Tue 08:28:21 AM 39.0847 -90.2625 350° North 323 372 13,800 1,610 Climbing Kansas City Center
Tue 08:29:23 AM 39.2014 -90.2881 350° North 343 395 15,600 1,659 Climbing Kansas City Center
Tue 08:30:24 AM 39.3000 -90.3100 350° North 353 406 17,200 1,512 Climbing Kansas City Center
Tue 08:31:26 AM 39.3975 -90.3322 350° North 356 410 18,700 1,452 Climbing Kansas City Center
Tue 08:32:28 AM 39.4925 -90.3553 349° North 353 406 20,200 1,463 Climbing Kansas City Center
Tue 08:33:29 AM 39.5897 -90.3772 350° North 354 407 21,700 1,366 Climbing Kansas City Center
Tue 08:34:31 AM 39.6878 -90.3997 350° North 358 412 23,000 1,073 Climbing Kansas City Center
Tue 08:35:32 AM 39.7853 -90.4467 340° North 367 422 23,900 1,171 Climbing Kansas City Center
Tue 08:36:34 AM 39.8794 -90.5092 333° Northwest 377 434 25,400 1,645 Climbing Kansas City Center
Tue 08:37:36 AM 39.9897 -90.5808 334° Northwest 371 427 27,300 1,659 Climbing Kansas City Center
Tue 08:38:37 AM 40.0789 -90.6403 333° Northwest 363 418 28,800 1,317 Climbing Kansas City Center
Tue 08:39:39 AM 40.1686 -90.6975 334° Northwest 358 412 30,000 1,113 Climbing Kansas City Center
Tue 08:40:41 AM 40.2583 -90.7575 333° Northwest 359 413 31,100 1,073 Climbing Kansas City Center
Tue 08:41:42 AM 40.3475 -90.8178 333° Northwest 359 413 32,200 1,073 Climbing Kansas City Center
Tue 08:42:44 AM 40.4381 -90.8767 334° Northwest 360 414 33,300 871 Climbing Kansas City Center
Tue 08:43:46 AM 40.5275 -90.9378 333° Northwest 361 415 34,000 341 Climbing Kansas City Center
Tue 08:44:47 AM 40.6208 -91.0006 333° Northwest 368 423 34,000  Level Kansas City Center
Tue 08:45:49 AM 40.7208 -91.0686 333° Northwest 387 445 34,000  Level Kansas City Center
Tue 08:46:51 AM 40.8428 -91.1539 332° Northwest 405 466 34,000  Level Kansas City Center
Tue 08:47:53 AM 40.9467 -91.2264 332° Northwest 414 476 34,000  Level Kansas City Center
Tue 08:48:54 AM 41.0503 -91.2994 332° Northwest 419 482 34,000  Level Kansas City Center
Tue 08:50:10 AM 41.1725 -91.3861 332° Northwest 415 478 34,000  Level Chicago Center
Tue 08:51:12 AM 41.2819 -91.4653 331° Northwest 420 483 34,000  Level Chicago Center
Tue 08:52:14 AM 41.3853 -91.5392 332° Northwest 424 488 34,000  Level Chicago Center
Tue 08:53:16 AM 41.4903 -91.6147 332° Northwest 430 495 34,000  Level Chicago Center
Tue 08:54:17 AM 41.5967 -91.6914 332° Northwest 436 502 34,000  Level Chicago Center
Tue 08:55:19 AM 41.7244 -91.7839 332° Northwest 440 506 34,000  Level Chicago Center
Tue 08:56:21 AM 41.8308 -91.8617 331° Northwest 438 504 34,000  Level Chicago Center
Tue 08:57:22 AM 41.9369 -91.9400 331° Northwest 438 504 34,000  Level Chicago Center
Tue 08:58:24 AM 42.0417 -92.0147 332° Northwest 430 495 34,000  Level Chicago Center
Tue 08:59:26 AM 42.1467 -92.0911 332° Northwest 429 494 34,000  Level Chicago Center
Tue 09:00:27 AM 42.2511 -92.1697 331° Northwest 431 496 34,000  Level Chicago Center
Tue 09:01:29 AM 42.3778 -92.2642 331° Northwest 433 498 34,000  Level Chicago Center
Tue 09:02:31 AM 42.4822 -92.3411 331° Northwest 430 495 34,000  Level Chicago Center
Tue 09:03:33 AM 42.5772 -92.4358 324° Northwest 424 488 34,000  Level Chicago Center
Tue 09:04:34 AM 42.6561 -92.5544 312° West 422 486 34,000  Level Chicago Center
Tue 09:05:10 AM 42.7025 -92.6281 311° West 426 490 34,000  Level Minneapolis Center
Tue 09:06:12 AM 42.7797 -92.7494 311° West 427 491 34,000 -146 Level Minneapolis Center
Tue 09:07:13 AM 42.8567 -92.8722 311° West 428 493 33,700 -878 Descending Minneapolis Center
Tue 09:08:15 AM 42.9347 -92.9936 311° West 428 493 32,200 -1,512 Descending Minneapolis Center
Tue 09:09:16 AM 43.0272 -93.1417 311° West 430 495 30,600 -1,610 Descending Minneapolis Center
Tue 09:10:18 AM 43.1047 -93.2661 310° West 432 497 28,900 -1,548 Descending Minneapolis Center
Tue 09:11:20 AM 43.1811 -93.3908 310° West 431 496 27,400 -1,463 Descending Minneapolis Center
Tue 09:12:21 AM 43.2719 -93.4911 321° Northwest 428 493 25,900 -1,512 Descending Minneapolis Center
Tue 09:13:23 AM 43.3886 -93.5314 346° North 436 502 24,300 -1,597 Descending Minneapolis Center
Tue 09:14:25 AM 43.5119 -93.5206 North 442 509 22,600 -2,195 Descending Minneapolis Center
Tue 09:15:26 AM 43.6425 -93.5089 North 431 496 19,800 -2,634 Descending Minneapolis Center
Tue 09:16:28 AM 43.7519 -93.5019 North 408 470 17,200 -2,293 Descending Minneapolis Center
Tue 09:17:29 AM 43.8333 -93.4939 North 384 442 15,100 -2,732 Descending Minneapolis Center
Tue 09:18:31 AM 43.9636 -93.4847 North 341 392 11,600 -2,855 Descending Minneapolis Center
Tue 09:19:33 AM 44.0442 -93.4756 North 301 346 9,200 -1,742 Descending Minneapolis Center
Tue 09:20:35 AM 44.1236 -93.4722 North 282 325 8,000 -585 Descending Minneapolis Center
Tue 09:21:36 AM 44.2000 -93.4653 North 276 318 8,000  Level Minneapolis Center
Tue 09:22:38 AM 44.2767 -93.4622 North 276 318 8,000 -242 Level Minneapolis Center
Tue 09:23:40 AM 44.3486 -93.4814 349° North 258 297 7,500 -829 Descending Minneapolis Center
Tue 09:24:41 AM 44.4078 -93.5011 347° North 219 252 6,300 -1,220 Descending Minneapolis Center
Tue 09:25:43 AM 44.4672 -93.5206 347° North 218 251 5,000 -629 Descending Minneapolis Center
Tue 09:26:45 AM 44.5403 -93.5411 349° North 223 257 5,000 -537 Level Minneapolis Center
Tue 09:27:46 AM 44.6011 -93.5636 345° North 225 259 3,900 -927 Descending Minneapolis Center
Tue 09:28:48 AM 44.6497 -93.5850 343° North 228 262 3,100 -439 Descending Minneapolis Center
Tue 09:29:49 AM 44.7081 -93.6075 345° North 218 251 3,000 -49 Descending Minneapolis Center
Tue 09:30:51 AM 44.7797 -93.6128 357° North 219 252 3,000 -242 Level Minneapolis Center
Tue 09:31:53 AM 44.8275 -93.5897 19° North 189 217 2,500 -441 Descending Minneapolis Center
Tue 09:33:07 AM 44.8389 -93.5378 73° East 144 166 2,000 -618 Descending Minneapolis Center
Tue 09:34:09 AM 44.8303 -93.4800 102° East 125 144 1,100 -871 Descending Minneapolis Center

Login

Don't have an account? Register now (free) for customized features, flight alerts, and more!